Time;durP1;ratioP1;P1;durP2;ratioP2;P2;SDS_P1;SDS_P2;PMS_P1;PMS_P2;Temp;Humidity;BMP_temperature;BMP_pressure;BME280_temperature;BME280_humidity;BME280_pressure;Samples;Min_cycle;Max_cycle;Signal;HPM_P1;HPM_P2
2023/05/07 00:00:45;;;;;;;7.85;5.53;;;;;;;;;;5037734;28;20029;-60
2023/05/07 00:03:13;;;;;;;7.93;5.78;;;;;;;;;;5039029;28;20036;-60
2023/05/07 00:05:39;;;;;;;6.90;5.57;;;;;;;;;;5042556;28;20406;-59
2023/05/07 00:08:06;;;;;;;8.88;5.53;;;;;;;;;;5040016;28;20040;-59
2023/05/07 00:10:32;;;;;;;7.43;5.22;;;;;;;;;;5038207;28;20033;-60
2023/05/07 00:12:58;;;;;;;9.88;5.95;;;;;;;;;;5041938;28;20048;-59
2023/05/07 00:15:24;;;;;;;7.57;5.60;;;;;;;;;;5040661;28;20060;-59
2023/05/07 00:17:50;;;;;;;12.75;5.30;;;;;;;;;;5033083;28;20057;-59
2023/05/07 00:20:16;;;;;;;7.22;5.78;;;;;;;;;;5036437;28;20404;-59
2023/05/07 00:22:43;;;;;;;9.40;5.80;;;;;;;;;;5036449;28;20045;-60
2023/05/07 00:25:10;;;;;;;8.45;5.97;;;;;;;;;;5039752;28;20407;-59
2023/05/07 00:27:36;;;;;;;10.43;6.68;;;;;;;;;;5039342;28;20059;-59
2023/05/07 00:30:02;;;;;;;9.23;6.68;;;;;;;;;;5041260;28;20116;-59
2023/05/07 00:32:32;;;;;;;8.00;5.65;;;;;;;;;;5034706;28;20032;-59
2023/05/07 00:34:58;;;;;;;10.13;5.45;;;;;;;;;;5036340;28;20503;-60
2023/05/07 00:37:24;;;;;;;12.10;5.95;;;;;;;;;;5035519;28;20380;-59
2023/05/07 00:39:50;;;;;;;8.45;6.60;;;;;;;;;;5037424;28;20049;-59
2023/05/07 00:42:16;;;;;;;11.52;7.07;;;;;;;;;;5039564;28;20030;-59
2023/05/07 00:44:42;;;;;;;9.02;6.70;;;;;;;;;;5036715;28;20048;-60
2023/05/07 00:47:09;;;;;;;7.97;6.43;;;;;;;;;;5035730;28;20502;-59
2023/05/07 00:49:41;;;;;;;10.77;6.68;;;;;;;;;;5032383;28;20399;-60
2023/05/07 00:52:08;;;;;;;9.00;6.68;;;;;;;;;;5038188;28;20475;-60
2023/05/07 00:54:35;;;;;;;9.00;7.05;;;;;;;;;;5037187;28;20025;-60
2023/05/07 00:57:03;;;;;;;11.68;7.00;;;;;;;;;;5033394;28;20403;-60
2023/05/07 00:59:31;;;;;;;9.60;7.28;;;;;;;;;;5036333;28;20045;-60
2023/05/07 01:01:58;;;;;;;11.05;7.03;;;;;;;;;;5038278;28;20029;-60
2023/05/07 01:04:24;;;;;;;7.70;6.20;;;;;;;;;;5040512;28;20529;-60
2023/05/07 01:06:52;;;;;;;15.30;6.28;;;;;;;;;;5019161;28;20515;-61
2023/05/07 01:09:19;;;;;;;9.48;6.47;;;;;;;;;;5035159;28;20045;-60
2023/05/07 01:11:47;;;;;;;9.38;6.30;;;;;;;;;;5031016;28;20064;-59
2023/05/07 01:14:13;;;;;;;9.77;6.90;;;;;;;;;;5041918;28;20044;-59
2023/05/07 01:16:41;;;;;;;9.43;7.05;;;;;;;;;;5047344;28;20040;-58
2023/05/07 01:19:11;;;;;;;11.20;6.25;;;;;;;;;;5039051;28;20086;-58
2023/05/07 01:21:38;;;;;;;9.48;7.03;;;;;;;;;;5040186;28;20518;-60
2023/05/07 01:24:05;;;;;;;8.73;6.55;;;;;;;;;;5034597;28;20057;-60
2023/05/07 01:26:32;;;;;;;8.80;6.43;;;;;;;;;;5041697;28;20033;-60
2023/05/07 01:28:59;;;;;;;9.10;6.75;;;;;;;;;;5043614;28;20352;-60
2023/05/07 01:31:25;;;;;;;11.05;6.75;;;;;;;;;;5037672;28;21867;-60
2023/05/07 01:33:52;;;;;;;8.05;6.18;;;;;;;;;;5046175;28;20045;-60
2023/05/07 01:36:21;;;;;;;9.45;6.90;;;;;;;;;;5039537;28;20045;-61
2023/05/07 01:38:47;;;;;;;7.67;6.47;;;;;;;;;;5033747;28;20033;-60
2023/05/07 01:41:14;;;;;;;7.07;5.55;;;;;;;;;;5038199;28;20072;-60
2023/05/07 01:43:42;;;;;;;6.65;4.90;;;;;;;;;;5027347;28;20498;-60
2023/05/07 01:46:10;;;;;;;7.35;4.82;;;;;;;;;;5039483;28;20033;-60
2023/05/07 01:48:37;;;;;;;9.63;4.90;;;;;;;;;;5041802;28;20044;-60
2023/05/07 01:51:04;;;;;;;6.15;4.72;;;;;;;;;;5042270;28;20055;-60
2023/05/07 01:53:36;;;;;;;6.65;4.68;;;;;;;;;;5039210;28;20044;-59
2023/05/07 01:56:02;;;;;;;7.28;4.20;;;;;;;;;;5034940;28;20044;-59
2023/05/07 01:58:30;;;;;;;5.85;4.22;;;;;;;;;;5039652;28;20048;-59
2023/05/07 02:00:57;;;;;;;4.20;3.80;;;;;;;;;;5038998;28;20049;-61
2023/05/07 02:03:23;;;;;;;6.85;4.38;;;;;;;;;;5039621;28;20498;-59
2023/05/07 02:05:56;;;;;;;7.50;4.22;;;;;;;;;;5034196;28;20392;-59
2023/05/07 02:08:41;;;;;;;5.28;3.75;;;;;;;;;;5031977;28;20036;-59
2023/05/07 02:11:07;;;;;;;4.20;3.78;;;;;;;;;;5041082;28;20021;-59
2023/05/07 02:13:36;;;;;;;6.80;4.15;;;;;;;;;;5041401;28;20045;-59
2023/05/07 02:16:03;;;;;;;6.18;3.58;;;;;;;;;;5037490;28;20038;-59
2023/05/07 02:18:29;;;;;;;7.80;3.80;;;;;;;;;;5036178;28;20033;-59
2023/05/07 02:20:55;;;;;;;4.97;4.20;;;;;;;;;;5038913;28;20037;-59
2023/05/07 02:23:22;;;;;;;4.68;4.13;;;;;;;;;;5040931;28;20047;-59
2023/05/07 02:25:48;;;;;;;8.00;4.68;;;;;;;;;;5038640;28;20419;-59
2023/05/07 02:28:15;;;;;;;7.28;4.40;;;;;;;;;;5019380;28;20522;-59
2023/05/07 02:30:54;;;;;;;6.80;4.47;;;;;;;;;;5032980;28;20029;-59
2023/05/07 02:33:21;;;;;;;7.13;4.70;;;;;;;;;;5037243;28;20033;-60
2023/05/07 02:35:47;;;;;;;7.07;5.28;;;;;;;;;;5038269;28;20036;-59
2023/05/07 02:38:15;;;;;;;7.63;5.57;;;;;;;;;;5037492;28;20033;-59
2023/05/07 02:40:41;;;;;;;8.75;5.20;;;;;;;;;;5041645;28;20029;-59
2023/05/07 02:43:08;;;;;;;8.73;4.95;;;;;;;;;;5042966;28;20037;-59
2023/05/07 02:45:35;;;;;;;6.82;5.07;;;;;;;;;;5039693;28;20033;-58
2023/05/07 02:48:05;;;;;;;6.50;5.22;;;;;;;;;;5037382;28;20193;-59
2023/05/07 02:50:32;;;;;;;7.82;5.13;;;;;;;;;;5044428;28;20032;-59
2023/05/07 02:52:58;;;;;;;5.72;4.97;;;;;;;;;;5041352;28;20053;-59
2023/05/07 02:55:25;;;;;;;9.07;6.05;;;;;;;;;;5039916;28;20041;-59
2023/05/07 02:57:51;;;;;;;8.90;6.07;;;;;;;;;;5041351;28;20639;-59
2023/05/07 03:00:18;;;;;;;10.27;5.93;;;;;;;;;;5034017;28;20119;-59
2023/05/07 03:02:52;;;;;;;7.43;5.68;;;;;;;;;;5038087;28;20037;-59
2023/05/07 03:05:19;;;;;;;7.07;5.70;;;;;;;;;;5038251;28;20040;-59
2023/05/07 03:07:46;;;;;;;8.98;5.82;;;;;;;;;;5038164;28;20033;-59
2023/05/07 03:10:12;;;;;;;11.35;6.18;;;;;;;;;;5040147;28;20029;-59
2023/05/07 03:12:39;;;;;;;7.80;5.95;;;;;;;;;;5033558;28;20037;-59
2023/05/07 03:15:06;;;;;;;11.82;6.50;;;;;;;;;;5039437;28;20036;-59
2023/05/07 03:17:32;;;;;;;9.02;6.28;;;;;;;;;;5020408;28;20045;-58
2023/05/07 03:19:58;;;;;;;9.88;6.53;;;;;;;;;;5034646;28;20538;-59
2023/05/07 03:22:25;;;;;;;9.45;6.80;;;;;;;;;;5037625;28;20633;-59
2023/05/07 03:24:51;;;;;;;8.32;6.53;;;;;;;;;;5035202;28;20432;-59
2023/05/07 03:27:17;;;;;;;8.43;6.75;;;;;;;;;;5039163;28;20037;-59
2023/05/07 03:29:44;;;;;;;7.10;6.30;;;;;;;;;;5035082;28;20075;-59
2023/05/07 03:32:10;;;;;;;8.52;5.72;;;;;;;;;;5038146;28;20375;-59
2023/05/07 03:34:36;;;;;;;12.55;6.47;;;;;;;;;;5040949;28;20033;-59
2023/05/07 03:37:02;;;;;;;11.27;6.38;;;;;;;;;;5042762;28;20045;-59
2023/05/07 03:39:29;;;;;;;7.72;5.57;;;;;;;;;;5038804;28;20037;-60
2023/05/07 03:41:55;;;;;;;7.35;5.38;;;;;;;;;;5042595;28;20033;-59
2023/05/07 03:44:21;;;;;;;9.23;5.10;;;;;;;;;;5033865;28;20035;-59
2023/05/07 03:46:49;;;;;;;7.22;5.03;;;;;;;;;;5036399;28;20045;-59
2023/05/07 03:49:15;;;;;;;8.20;5.93;;;;;;;;;;5035231;28;20037;-59
2023/05/07 03:51:42;;;;;;;8.25;5.28;;;;;;;;;;5038855;28;20403;-59
2023/05/07 03:54:09;;;;;;;8.15;5.60;;;;;;;;;;5037322;28;20049;-59
2023/05/07 03:56:36;;;;;;;9.40;6.15;;;;;;;;;;5039286;28;20044;-59
2023/05/07 03:59:02;;;;;;;9.55;6.68;;;;;;;;;;5039965;28;20049;-59
2023/05/07 04:01:28;;;;;;;10.68;6.60;;;;;;;;;;5039758;28;20032;-58
2023/05/07 04:03:55;;;;;;;8.30;6.20;;;;;;;;;;5036572;28;20049;-58
2023/05/07 04:06:22;;;;;;;11.63;5.88;;;;;;;;;;5039303;28;20044;-59
2023/05/07 04:08:49;;;;;;;7.72;5.50;;;;;;;;;;5038233;28;20036;-58
2023/05/07 04:11:15;;;;;;;7.28;6.20;;;;;;;;;;5019622;28;20395;-58
2023/05/07 04:13:42;;;;;;;10.95;6.30;;;;;;;;;;5034137;28;20064;-58
2023/05/07 04:16:09;;;;;;;8.40;5.57;;;;;;;;;;5033388;28;20041;-59
2023/05/07 04:18:37;;;;;;;9.25;5.90;;;;;;;;;;5028198;28;20037;-59
2023/05/07 04:21:04;;;;;;;8.82;6.25;;;;;;;;;;5036984;28;20036;-60
2023/05/07 04:23:30;;;;;;;11.10;7.43;;;;;;;;;;5036643;28;20036;-58
2023/05/07 04:26:01;;;;;;;7.63;5.95;;;;;;;;;;5038642;28;20045;-59
2023/05/07 04:28:36;;;;;;;13.80;6.47;;;;;;;;;;5035968;28;20037;-60
2023/05/07 04:31:02;;;;;;;10.57;7.13;;;;;;;;;;5040904;28;20399;-60
2023/05/07 04:33:32;;;;;;;10.38;6.80;;;;;;;;;;5038699;28;20044;-60
2023/05/07 04:36:02;;;;;;;11.20;6.35;;;;;;;;;;5038572;28;20052;-60
2023/05/07 04:38:31;;;;;;;11.93;7.20;;;;;;;;;;5041165;28;20036;-59
2023/05/07 04:41:03;;;;;;;10.38;6.43;;;;;;;;;;5039089;28;20045;-59
2023/05/07 04:43:29;;;;;;;12.15;6.68;;;;;;;;;;5039102;28;20044;-59
2023/05/07 04:45:55;;;;;;;9.57;6.63;;;;;;;;;;5034650;28;20074;-59
2023/05/07 04:48:24;;;;;;;11.30;7.35;;;;;;;;;;5039180;28;20059;-59
2023/05/07 04:50:53;;;;;;;12.95;7.10;;;;;;;;;;5026588;28;20033;-59
2023/05/07 04:53:20;;;;;;;11.38;7.05;;;;;;;;;;5040012;28;20029;-58
2023/05/07 04:55:47;;;;;;;9.75;7.00;;;;;;;;;;5034584;28;20034;-59
2023/05/07 04:58:14;;;;;;;11.57;7.20;;;;;;;;;;5038760;28;20037;-58
2023/05/07 05:00:42;;;;;;;9.55;7.50;;;;;;;;;;5035526;28;20105;-59
2023/05/07 05:03:09;;;;;;;12.85;6.93;;;;;;;;;;5043113;28;20037;-59
2023/05/07 05:05:37;;;;;;;9.25;7.43;;;;;;;;;;5034918;28;20037;-59
2023/05/07 05:08:03;;;;;;;13.10;7.18;;;;;;;;;;5037755;28;20048;-60
2023/05/07 05:10:30;;;;;;;8.23;6.50;;;;;;;;;;5042226;28;20410;-60
2023/05/07 05:12:56;;;;;;;9.07;5.72;;;;;;;;;;5032058;28;20089;-59
2023/05/07 05:15:23;;;;;;;11.05;6.93;;;;;;;;;;5035817;28;20045;-60
2023/05/07 05:17:49;;;;;;;9.05;6.47;;;;;;;;;;5035161;28;20531;-59
2023/05/07 05:20:16;;;;;;;11.07;6.90;;;;;;;;;;5024427;28;20403;-60
2023/05/07 05:22:42;;;;;;;10.43;7.00;;;;;;;;;;5041412;28;20048;-60
2023/05/07 05:25:09;;;;;;;8.82;6.78;;;;;;;;;;5042979;28;20033;-60
2023/05/07 05:27:35;;;;;;;10.23;6.82;;;;;;;;;;5038300;28;20060;-60
2023/05/07 05:30:03;;;;;;;10.85;7.47;;;;;;;;;;5032100;28;20029;-60
2023/05/07 05:32:30;;;;;;;9.13;7.28;;;;;;;;;;5033641;28;20396;-60
2023/05/07 05:35:00;;;;;;;9.50;7.07;;;;;;;;;;5033448;28;20041;-60
2023/05/07 05:37:26;;;;;;;;;;;;;;;;;;5034215;28;20042;-60
2023/05/07 05:39:54;;;;;;;10.05;7.00;;;;;;;;;;5038445;28;19916;-59
2023/05/07 05:42:21;;;;;;;9.98;7.05;;;;;;;;;;5041858;28;20040;-60
2023/05/07 05:44:47;;;;;;;10.85;7.15;;;;;;;;;;5032531;28;20049;-60
2023/05/07 05:47:16;;;;;;;14.00;7.55;;;;;;;;;;5038994;28;20064;-60
2023/05/07 05:49:43;;;;;;;11.73;7.65;;;;;;;;;;5042635;28;20045;-60
2023/05/07 05:52:12;;;;;;;10.98;7.75;;;;;;;;;;5042363;28;20045;-60
2023/05/07 05:54:38;;;;;;;8.30;6.93;;;;;;;;;;5035819;28;20036;-60
2023/05/07 05:57:05;;;;;;;9.10;7.30;;;;;;;;;;5039758;28;20045;-61
2023/05/07 05:59:32;;;;;;;9.18;7.25;;;;;;;;;;5034089;28;20029;-61
2023/05/07 06:01:58;;;;;;;9.98;6.68;;;;;;;;;;5038354;28;20046;-60
2023/05/07 06:04:24;;;;;;;8.80;6.82;;;;;;;;;;5041110;28;20033;-61
2023/05/07 06:06:51;;;;;;;10.75;6.90;;;;;;;;;;5039964;28;20415;-59
2023/05/07 06:09:17;;;;;;;8.57;6.50;;;;;;;;;;5042492;28;20037;-59
2023/05/07 06:11:44;;;;;;;8.85;6.82;;;;;;;;;;5040391;28;20033;-62
2023/05/07 06:14:12;;;;;;;9.20;6.93;;;;;;;;;;5037033;28;20033;-60
2023/05/07 06:16:38;;;;;;;10.73;6.82;;;;;;;;;;5038555;28;20033;-60
2023/05/07 06:19:06;;;;;;;10.65;6.60;;;;;;;;;;5042076;28;20045;-62
2023/05/07 06:21:32;;;;;;;9.85;7.20;;;;;;;;;;5040599;28;20037;-60
2023/05/07 06:23:58;;;;;;;9.55;5.10;;;;;;;;;;5042996;28;20028;-60
2023/05/07 06:26:25;;;;;;;10.43;5.93;;;;;;;;;;5040747;28;20039;-59
2023/05/07 06:28:52;;;;;;;8.88;6.70;;;;;;;;;;5037895;28;20037;-62
2023/05/07 06:31:22;;;;;;;8.07;6.57;;;;;;;;;;5036603;28;20032;-60
2023/05/07 06:33:56;;;;;;;11.27;6.60;;;;;;;;;;5035802;28;20038;-60
2023/05/07 06:36:29;;;;;;;10.55;6.88;;;;;;;;;;5039212;28;20041;-60
2023/05/07 06:38:57;;;;;;;9.50;6.97;;;;;;;;;;5039149;28;20036;-60
2023/05/07 06:41:24;;;;;;;8.35;6.55;;;;;;;;;;5034616;28;20045;-60
2023/05/07 06:43:50;;;;;;;9.50;6.50;;;;;;;;;;5041442;28;20751;-60
2023/05/07 06:46:27;;;;;;;11.00;6.43;;;;;;;;;;5038718;28;20549;-59
2023/05/07 06:48:54;;;;;;;9.82;7.00;;;;;;;;;;5046697;28;20072;-60
2023/05/07 06:51:20;;;;;;;9.77;7.00;;;;;;;;;;5038571;28;20471;-60
2023/05/07 06:53:46;;;;;;;11.57;7.10;;;;;;;;;;5034695;28;20164;-59
2023/05/07 06:56:12;;;;;;;9.13;6.80;;;;;;;;;;5041509;28;20307;-58
2023/05/07 06:58:39;;;;;;;8.63;6.07;;;;;;;;;;5038815;28;20263;-59
2023/05/07 07:01:06;;;;;;;7.10;5.60;;;;;;;;;;5039936;28;20028;-58
2023/05/07 07:03:34;;;;;;;6.85;5.75;;;;;;;;;;5037885;28;20045;-58
2023/05/07 07:06:01;;;;;;;8.95;5.45;;;;;;;;;;5035590;28;20044;-58
2023/05/07 07:08:27;;;;;;;7.72;5.63;;;;;;;;;;5032997;28;20049;-58
2023/05/07 07:10:54;;;;;;;10.07;5.20;;;;;;;;;;5034179;28;20037;-59
2023/05/07 07:13:20;;;;;;;9.70;5.22;;;;;;;;;;5034384;28;20143;-58
2023/05/07 07:15:46;;;;;;;10.27;5.80;;;;;;;;;;5036404;28;20048;-58
2023/05/07 07:18:13;;;;;;;7.97;5.20;;;;;;;;;;5039384;28;20052;-58
2023/05/07 07:20:39;;;;;;;15.15;5.32;;;;;;;;;;5043367;28;20060;-58
2023/05/07 07:23:07;;;;;;;6.50;5.55;;;;;;;;;;5037495;28;20038;-59
2023/05/07 07:25:33;;;;;;;8.07;5.20;;;;;;;;;;5038847;28;21138;-59
2023/05/07 07:28:00;;;;;;;7.50;5.47;;;;;;;;;;5040542;28;20434;-59
2023/05/07 07:30:27;;;;;;;7.85;4.63;;;;;;;;;;5037930;28;20025;-60
2023/05/07 07:32:54;;;;;;;8.38;5.10;;;;;;;;;;5037072;28;20028;-59
2023/05/07 07:35:21;;;;;;;9.20;5.13;;;;;;;;;;5042216;28;20025;-58
2023/05/07 07:37:50;;;;;;;7.63;4.60;;;;;;;;;;5041283;28;20033;-59
2023/05/07 07:40:16;;;;;;;6.70;4.97;;;;;;;;;;5043044;28;20033;-58
2023/05/07 07:42:44;;;;;;;9.63;5.57;;;;;;;;;;5039212;28;20033;-59
2023/05/07 07:45:11;;;;;;;7.63;5.10;;;;;;;;;;5043653;28;20050;-59
2023/05/07 07:47:42;;;;;;;6.75;5.07;;;;;;;;;;5034952;28;20049;-59
2023/05/07 07:50:10;;;;;;;5.90;5.13;;;;;;;;;;5041842;28;20048;-59
2023/05/07 07:52:36;;;;;;;8.80;5.05;;;;;;;;;;5042528;28;20032;-59
2023/05/07 07:55:04;;;;;;;9.02;5.47;;;;;;;;;;5041982;28;20071;-58
2023/05/07 07:57:31;;;;;;;5.38;4.70;;;;;;;;;;5037634;28;20491;-60
2023/05/07 07:59:57;;;;;;;7.18;5.15;;;;;;;;;;5042006;28;20045;-59
2023/05/07 08:02:23;;;;;;;5.63;5.03;;;;;;;;;;5036374;28;20053;-59
2023/05/07 08:04:50;;;;;;;8.02;4.70;;;;;;;;;;5036607;28;20391;-59
2023/05/07 08:07:20;;;;;;;6.88;4.65;;;;;;;;;;5025136;28;20045;-59
2023/05/07 08:09:47;;;;;;;9.23;4.63;;;;;;;;;;5032124;28;20049;-58
2023/05/07 08:12:15;;;;;;;5.68;4.78;;;;;;;;;;5036384;28;20029;-62
2023/05/07 08:14:42;;;;;;;33.17;5.75;;;;;;;;;;5039017;28;20044;-59
2023/05/07 08:17:10;;;;;;;24.33;5.60;;;;;;;;;;5037816;28;20429;-59
2023/05/07 08:19:36;;;;;;;28.02;5.47;;;;;;;;;;5035605;28;20037;-58
2023/05/07 08:22:05;;;;;;;23.95;4.95;;;;;;;;;;5041943;28;20033;-59
2023/05/07 08:24:33;;;;;;;13.20;4.77;;;;;;;;;;5039344;28;20052;-58
2023/05/07 08:26:59;;;;;;;10.68;4.60;;;;;;;;;;5038222;28;20800;-58
2023/05/07 08:29:25;;;;;;;9.05;4.60;;;;;;;;;;5035965;28;20210;-58
2023/05/07 08:31:52;;;;;;;6.55;5.25;;;;;;;;;;5023039;28;20614;-59
2023/05/07 08:34:19;;;;;;;6.55;5.43;;;;;;;;;;5041459;28;20443;-59
2023/05/07 08:36:48;;;;;;;8.02;5.10;;;;;;;;;;5034560;28;20045;-58
2023/05/07 08:39:16;;;;;;;7.45;5.03;;;;;;;;;;5038210;28;20037;-59
2023/05/07 08:41:48;;;;;;;5.20;4.57;;;;;;;;;;5037879;28;20041;-58
2023/05/07 08:44:17;;;;;;;7.30;5.10;;;;;;;;;;5040693;28;20049;-59
2023/05/07 08:46:48;;;;;;;5.95;4.55;;;;;;;;;;5037762;28;20033;-59
2023/05/07 08:49:16;;;;;;;5.10;4.60;;;;;;;;;;5036463;28;20056;-59
2023/05/07 08:51:43;;;;;;;10.88;4.85;;;;;;;;;;5037083;28;20037;-59
2023/05/07 08:54:11;;;;;;;9.73;4.53;;;;;;;;;;5037061;28;20071;-59
2023/05/07 08:56:37;;;;;;;18.77;5.43;;;;;;;;;;5033655;28;20049;-59
2023/05/07 08:59:03;;;;;;;6.07;4.50;;;;;;;;;;5035702;28;20104;-58
2023/05/07 09:01:30;;;;;;;6.43;4.95;;;;;;;;;;5025399;28;20480;-58
2023/05/07 09:03:57;;;;;;;7.70;4.70;;;;;;;;;;5040970;28;20046;-59
2023/05/07 09:06:26;;;;;;;16.33;5.20;;;;;;;;;;5035551;28;20148;-63
2023/05/07 09:08:54;;;;;;;9.52;4.95;;;;;;;;;;5041057;28;20028;-59
2023/05/07 09:11:23;;;;;;;7.68;4.72;;;;;;;;;;5022833;28;20045;-60
2023/05/07 09:13:55;;;;;;;5.93;4.30;;;;;;;;;;5036171;28;20376;-60
2023/05/07 09:16:26;;;;;;;5.68;4.38;;;;;;;;;;5042989;28;20044;-59
2023/05/07 09:18:54;;;;;;;6.28;4.50;;;;;;;;;;5024060;28;20487;-58
2023/05/07 09:21:22;;;;;;;5.10;4.15;;;;;;;;;;5045278;28;20387;-59
2023/05/07 09:23:52;;;;;;;5.22;4.15;;;;;;;;;;5038134;28;20041;-59
2023/05/07 09:26:21;;;;;;;8.20;4.38;;;;;;;;;;5033408;28;20388;-61
2023/05/07 09:28:48;;;;;;;;;;;;;;;;;;5038283;28;20037;-60
2023/05/07 09:31:15;;;;;;;4.22;3.58;;;;;;;;;;5035015;28;20374;-59
2023/05/07 09:33:42;;;;;;;4.88;3.38;;;;;;;;;;5043509;28;20044;-59
2023/05/07 09:36:10;;;;;;;3.80;2.70;;;;;;;;;;5043647;28;20463;-59
2023/05/07 09:38:39;;;;;;;7.80;3.20;;;;;;;;;;5035782;28;20569;-59
2023/05/07 09:41:07;;;;;;;3.33;3.03;;;;;;;;;;5038205;28;20041;-59
2023/05/07 09:43:39;;;;;;;4.03;3.13;;;;;;;;;;5045682;28;20033;-59
2023/05/07 09:46:14;;;;;;;6.05;3.58;;;;;;;;;;5038920;28;20033;-61
2023/05/07 09:48:48;;;;;;;3.80;3.40;;;;;;;;;;5041533;28;20483;-59
2023/05/07 09:51:38;;;;;;;4.72;3.03;;;;;;;;;;5056544;28;20514;-58
2023/05/07 09:54:04;;;;;;;4.53;3.50;;;;;;;;;;5039652;28;20033;-59
2023/05/07 09:56:34;;;;;;;4.00;2.97;;;;;;;;;;5046142;28;20055;-58
2023/05/07 09:59:03;;;;;;;3.40;3.10;;;;;;;;;;5035954;28;20092;-58
2023/05/07 10:01:32;;;;;;;4.05;3.10;;;;;;;;;;5042618;28;20029;-58
2023/05/07 10:03:59;;;;;;;5.03;3.03;;;;;;;;;;5042767;28;20522;-60
2023/05/07 10:06:25;;;;;;;5.22;3.38;;;;;;;;;;5040686;28;20418;-58
2023/05/07 10:08:53;;;;;;;4.97;3.53;;;;;;;;;;5042993;28;20407;-60
2023/05/07 10:11:20;;;;;;;4.22;3.28;;;;;;;;;;5042561;28;20052;-58
2023/05/07 10:13:47;;;;;;;4.15;3.20;;;;;;;;;;5049042;28;20501;-60
2023/05/07 10:16:14;;;;;;;7.18;3.40;;;;;;;;;;5046431;28;20041;-60
2023/05/07 10:18:46;;;;;;;3.22;2.65;;;;;;;;;;5040867;28;20052;-59
2023/05/07 10:21:19;;;;;;;4.78;3.20;;;;;;;;;;5041136;28;20040;-61
2023/05/07 10:24:13;;;;;;;5.95;2.88;;;;;;;;;;5041991;28;20060;-60
2023/05/07 10:26:48;;;;;;;3.40;2.60;;;;;;;;;;5044209;28;20028;-60
2023/05/07 10:29:29;;;;;;;3.42;2.88;;;;;;;;;;5042884;28;20368;-59
2023/05/07 10:32:19;;;;;;;5.45;2.63;;;;;;;;;;5043849;28;20045;-59
2023/05/07 10:34:49;;;;;;;4.07;2.95;;;;;;;;;;5046073;28;20102;-59
2023/05/07 10:37:17;;;;;;;4.80;2.83;;;;;;;;;;5035365;28;20525;-58
2023/05/07 10:39:44;;;;;;;5.03;4.07;;;;;;;;;;5038479;28;20063;-62
2023/05/07 10:42:13;;;;;;;5.90;3.55;;;;;;;;;;5040666;28;20434;-62
2023/05/07 10:44:43;;;;;;;5.03;3.40;;;;;;;;;;5048347;28;20040;-63
2023/05/07 10:47:18;;;;;;;4.20;3.13;;;;;;;;;;5030300;28;20025;-62
2023/05/07 10:49:47;;;;;;;4.40;3.05;;;;;;;;;;5043916;28;20074;-62
2023/05/07 10:52:25;;;;;;;3.53;3.10;;;;;;;;;;5047791;28;20044;-62
2023/05/07 10:55:24;;;;;;;3.72;2.80;;;;;;;;;;5042931;28;20029;-62
2023/05/07 10:58:30;;;;;;;3.30;2.50;;;;;;;;;;5045451;28;20053;-62
2023/05/07 11:01:05;;;;;;;6.90;2.95;;;;;;;;;;5042770;28;20053;-62
2023/05/07 11:04:12;;;;;;;5.78;3.10;;;;;;;;;;5038635;28;20041;-63
2023/05/07 11:06:39;;;;;;;3.45;2.80;;;;;;;;;;5048243;28;20036;-63
2023/05/07 11:09:10;;;;;;;4.70;2.90;;;;;;;;;;5042952;28;20061;-63
2023/05/07 11:11:52;;;;;;;3.88;3.25;;;;;;;;;;5053918;28;20044;-62
2023/05/07 11:14:45;;;;;;;5.13;3.38;;;;;;;;;;5038112;28;20041;-63
2023/05/07 11:17:22;;;;;;;6.55;3.40;;;;;;;;;;5045504;28;20044;-63
2023/05/07 11:19:56;;;;;;;5.38;3.38;;;;;;;;;;5043286;28;20419;-63
2023/05/07 11:22:39;;;;;;;3.40;3.05;;;;;;;;;;5042796;28;20041;-63
2023/05/07 11:25:18;;;;;;;3.47;2.92;;;;;;;;;;5041670;28;20100;-63
2023/05/07 11:27:45;;;;;;;3.83;3.17;;;;;;;;;;5044154;28;20036;-63
2023/05/07 11:30:18;;;;;;;7.13;4.10;;;;;;;;;;5043910;28;20037;-63
2023/05/07 11:32:47;;;;;;;5.88;3.92;;;;;;;;;;5042523;28;20052;-65
2023/05/07 11:35:22;;;;;;;4.28;3.83;;;;;;;;;;5039674;28;20036;-64
2023/05/07 11:37:49;;;;;;;6.90;4.13;;;;;;;;;;5041512;28;20399;-65
2023/05/07 11:40:16;;;;;;;17.95;7.60;;;;;;;;;;5044692;28;20398;-64
2023/05/07 11:42:43;;;;;;;16.42;6.38;;;;;;;;;;5045468;28;20033;-65
2023/05/07 11:45:09;;;;;;;13.32;5.43;;;;;;;;;;5041276;28;20487;-63
2023/05/07 11:47:35;;;;;;;11.55;4.72;;;;;;;;;;5044109;28;20044;-62
2023/05/07 11:50:07;;;;;;;10.50;5.10;;;;;;;;;;5045409;28;20037;-64
2023/05/07 11:52:34;;;;;;;12.65;4.80;;;;;;;;;;5044950;28;20379;-63
2023/05/07 11:55:03;;;;;;;12.85;5.28;;;;;;;;;;5045293;28;20033;-63
2023/05/07 11:57:30;;;;;;;15.02;5.68;;;;;;;;;;5035252;28;20059;-63
2023/05/07 11:59:57;;;;;;;12.20;3.88;;;;;;;;;;5041928;28;20034;-64
2023/05/07 12:02:28;;;;;;;9.90;4.10;;;;;;;;;;5046960;28;20533;-64
2023/05/07 12:04:54;;;;;;;11.65;4.95;;;;;;;;;;5046537;28;20037;-63
2023/05/07 12:07:21;;;;;;;9.52;4.78;;;;;;;;;;5043660;28;20029;-63
2023/05/07 12:09:47;;;;;;;5.60;4.20;;;;;;;;;;5041703;28;20674;-63
2023/05/07 12:12:15;;;;;;;14.13;6.80;;;;;;;;;;5044091;28;20038;-66
2023/05/07 12:14:43;;;;;;;16.55;6.38;;;;;;;;;;5046912;28;20049;-64
2023/05/07 12:17:10;;;;;;;11.43;4.53;;;;;;;;;;5045305;28;20045;-63
2023/05/07 12:19:38;;;;;;;6.82;3.70;;;;;;;;;;5045784;28;20041;-63
2023/05/07 12:22:07;;;;;;;11.52;4.55;;;;;;;;;;5033078;28;20041;-62
2023/05/07 12:24:46;;;;;;;11.13;4.93;;;;;;;;;;5039530;28;20036;-62
2023/05/07 12:27:16;;;;;;;9.45;4.60;;;;;;;;;;5038063;28;20048;-64
2023/05/07 12:29:47;;;;;;;9.90;4.57;;;;;;;;;;5038676;28;20052;-63
2023/05/07 12:32:17;;;;;;;7.60;4.93;;;;;;;;;;5041675;28;20040;-62
2023/05/07 12:34:44;;;;;;;6.28;5.32;;;;;;;;;;5042793;28;20040;-63
2023/05/07 12:37:12;;;;;;;6.05;4.68;;;;;;;;;;5045888;28;20066;-64
2023/05/07 12:39:44;;;;;;;7.13;4.88;;;;;;;;;;5034706;28;20192;-64
2023/05/07 12:42:15;;;;;;;11.38;5.82;;;;;;;;;;5037515;28;20064;-62
2023/05/07 12:44:45;;;;;;;9.15;5.80;;;;;;;;;;5043845;28;20042;-63
2023/05/07 12:47:12;;;;;;;7.28;5.38;;;;;;;;;;5038281;28;20032;-63
2023/05/07 12:49:39;;;;;;;8.68;5.25;;;;;;;;;;5043252;28;20355;-63
2023/05/07 12:52:06;;;;;;;9.05;5.82;;;;;;;;;;5037542;28;20049;-63
2023/05/07 12:54:34;;;;;;;7.80;5.57;;;;;;;;;;5044737;28;20048;-63
2023/05/07 12:57:08;;;;;;;8.40;5.47;;;;;;;;;;5041756;28;20092;-62
2023/05/07 12:59:36;;;;;;;9.18;5.88;;;;;;;;;;5038440;28;20395;-63
2023/05/07 13:02:03;;;;;;;8.80;5.95;;;;;;;;;;5051681;28;20044;-63
2023/05/07 13:04:29;;;;;;;10.40;6.82;;;;;;;;;;5042608;28;20033;-63
2023/05/07 13:06:55;;;;;;;12.73;6.57;;;;;;;;;;5042275;28;20044;-64
2023/05/07 13:09:21;;;;;;;8.38;6.35;;;;;;;;;;5040962;28;20041;-63
2023/05/07 13:11:48;;;;;;;8.15;5.85;;;;;;;;;;5044619;28;20037;-63
2023/05/07 13:14:14;;;;;;;6.28;5.32;;;;;;;;;;5047145;28;20034;-63
2023/05/07 13:16:41;;;;;;;6.35;4.72;;;;;;;;;;5036414;28;20030;-63
2023/05/07 13:19:07;;;;;;;5.20;3.65;;;;;;;;;;5037707;28;20044;-63
2023/05/07 13:21:33;;;;;;;4.82;4.38;;;;;;;;;;5041385;28;20399;-63
2023/05/07 13:23:59;;;;;;;9.32;4.18;;;;;;;;;;5041494;28;20479;-64
2023/05/07 13:26:26;;;;;;;4.68;3.67;;;;;;;;;;5043478;28;20063;-63
2023/05/07 13:28:54;;;;;;;4.63;3.50;;;;;;;;;;5040419;28;20033;-64
2023/05/07 13:31:20;;;;;;;4.85;3.70;;;;;;;;;;5047271;28;20033;-63
2023/05/07 13:33:47;;;;;;;4.70;3.95;;;;;;;;;;5038952;28;20025;-63
2023/05/07 13:36:13;;;;;;;8.07;4.53;;;;;;;;;;5035426;28;20040;-64
2023/05/07 13:38:39;;;;;;;8.88;4.88;;;;;;;;;;5038053;28;20033;-63
2023/05/07 13:41:06;;;;;;;6.60;5.22;;;;;;;;;;5040332;28;20080;-64
2023/05/07 13:43:33;;;;;;;7.88;4.50;;;;;;;;;;5041562;28;20057;-64
2023/05/07 13:46:00;;;;;;;6.35;4.30;;;;;;;;;;5041405;28;20518;-64
2023/05/07 13:48:28;;;;;;;4.43;3.83;;;;;;;;;;5045356;28;20039;-63
2023/05/07 13:50:54;;;;;;;5.63;3.75;;;;;;;;;;5040349;28;20029;-64
2023/05/07 13:53:20;;;;;;;6.70;3.50;;;;;;;;;;5041883;28;20374;-63
2023/05/07 13:55:46;;;;;;;5.10;3.53;;;;;;;;;;5040971;28;20045;-63
2023/05/07 13:58:13;;;;;;;4.57;3.20;;;;;;;;;;5039294;28;20056;-63
2023/05/07 14:00:40;;;;;;;4.35;3.30;;;;;;;;;;5036734;28;20029;-64
2023/05/07 14:03:06;;;;;;;5.97;4.00;;;;;;;;;;5049193;28;20041;-65
2023/05/07 14:05:32;;;;;;;5.75;4.13;;;;;;;;;;5047125;28;20055;-65
2023/05/07 14:07:58;;;;;;;6.20;3.50;;;;;;;;;;5041620;28;20044;-65
2023/05/07 14:10:25;;;;;;;6.88;3.50;;;;;;;;;;5045251;28;20055;-65
2023/05/07 14:12:52;;;;;;;4.70;3.35;;;;;;;;;;5040391;28;20026;-65
2023/05/07 14:15:18;;;;;;;4.10;3.70;;;;;;;;;;5042962;28;20037;-64
2023/05/07 14:17:45;;;;;;;5.45;3.83;;;;;;;;;;5040880;28;20033;-64
2023/05/07 14:20:12;;;;;;;6.05;4.15;;;;;;;;;;5046539;28;20052;-63
2023/05/07 14:22:38;;;;;;;5.78;4.22;;;;;;;;;;5045410;28;20056;-63
2023/05/07 14:25:05;;;;;;;4.72;4.00;;;;;;;;;;5044074;28;20037;-64
2023/05/07 14:27:32;;;;;;;5.65;3.78;;;;;;;;;;5045006;28;20427;-64
2023/05/07 14:29:58;;;;;;;6.25;4.30;;;;;;;;;;5041380;28;20037;-64
2023/05/07 14:32:24;;;;;;;8.00;4.82;;;;;;;;;;5037830;28;20057;-63
2023/05/07 14:34:50;;;;;;;6.68;4.65;;;;;;;;;;5036612;28;20033;-62
2023/05/07 14:37:19;;;;;;;10.98;4.82;;;;;;;;;;5040856;28;20434;-63
2023/05/07 14:39:45;;;;;;;7.43;5.28;;;;;;;;;;5040465;28;20036;-64
2023/05/07 14:42:12;;;;;;;8.95;5.10;;;;;;;;;;5043685;28;20033;-63
2023/05/07 14:44:41;;;;;;;8.05;5.10;;;;;;;;;;5043492;28;20049;-64
2023/05/07 14:47:07;;;;;;;7.22;5.28;;;;;;;;;;5041519;28;20054;-64